Time;durP1;ratioP1;P1;durP2;ratioP2;P2;SDS_P1;SDS_P2;PMS_P1;PMS_P2;Temp;Humidity;BMP_temperature;BMP_pressure;BME280_temperature;BME280_humidity;BME280_pressure;Samples;Min_cycle;Max_cycle;Signal;HPM_P1;HPM_P2
2021/10/31 00:00:19;;;;;;;5.55;1.85;;;;;;;8.87;100.00;97682.09;4992324;28;20022;-83
2021/10/31 00:02:45;;;;;;;6.03;2.17;;;;;;;8.80;100.00;97658.91;4991851;28;20026;-83
2021/10/31 00:05:10;;;;;;;6.28;2.20;;;;;;;8.87;100.00;97660.66;4993678;28;20487;-85
2021/10/31 00:07:36;;;;;;;10.25;2.25;;;;;;;8.79;100.00;97645.78;4976258;28;20372;-83
2021/10/31 00:10:03;;;;;;;6.90;1.90;;;;;;;8.88;100.00;97670.28;4975873;28;20031;-82
2021/10/31 00:12:29;;;;;;;3.45;1.60;;;;;;;8.88;100.00;97668.44;4992115;28;20109;-81
2021/10/31 00:14:54;;;;;;;7.90;1.38;;;;;;;8.85;100.00;97684.97;4991984;28;20529;-83
2021/10/31 00:17:20;;;;;;;13.82;2.95;;;;;;;8.75;100.00;97684.78;4991702;28;20022;-85
2021/10/31 00:19:46;;;;;;;0.38;0.38;;;;;;;8.69;100.00;97659.78;5008207;28;20027;-83
2021/10/31 00:22:12;;;;;;;0.57;0.50;;;;;;;8.44;100.00;97640.53;4975732;28;20034;-83
2021/10/31 00:24:38;;;;;;;0.70;0.35;;;;;;;8.26;100.00;97628.13;4992238;28;20045;-83
2021/10/31 00:27:04;;;;;;;0.20;0.20;;;;;;;8.18;100.00;97632.00;4991730;28;20026;-82
2021/10/31 00:29:32;;;;;;;0.65;0.65;;;;;;;8.12;100.00;97630.25;4992003;28;20505;-84
2021/10/31 00:31:57;;;;;;;0.63;0.63;;;;;;;8.01;100.00;97617.72;4975431;28;20096;-83
2021/10/31 00:34:23;;;;;;;0.47;0.47;;;;;;;7.98;100.00;97612.84;4991770;28;20479;-83
2021/10/31 00:36:48;;;;;;;2.60;0.63;;;;;;;7.92;100.00;97611.94;4959799;28;20417;-82
2021/10/31 00:39:14;;;;;;;2.72;2.47;;;;;;;7.93;100.00;97617.03;5007908;28;20026;-83
2021/10/31 00:41:40;;;;;;;1.65;0.93;;;;;;;7.94;100.00;97612.50;4991755;28;20023;-85
2021/10/31 00:44:06;;;;;;;0.50;0.50;;;;;;;7.94;100.00;97609.84;4975713;28;20129;-83
2021/10/31 00:46:31;;;;;;;16.40;1.05;;;;;;;7.98;100.00;97619.00;4991383;28;20028;-84
2021/10/31 00:48:57;;;;;;;11.15;2.03;;;;;;;7.93;100.00;97597.50;4975379;28;20073;-82
2021/10/31 00:51:27;;;;;;;0.77;0.77;;;;;;;8.11;100.00;97615.25;4975285;28;20038;-85
2021/10/31 00:53:58;;;;;;;0.45;0.45;;;;;;;8.17;100.00;97603.59;4959073;28;20031;-83
2021/10/31 00:56:24;;;;;;;0.30;0.30;;;;;;;8.15;100.00;97595.00;4991441;28;20100;-82
2021/10/31 00:58:51;;;;;;;0.30;0.30;;;;;;;8.11;100.00;97583.13;4958900;28;20041;-87
2021/10/31 01:01:16;;;;;;;0.30;0.30;;;;;;;7.98;100.00;97570.03;4991569;28;20026;-86
2021/10/31 01:03:42;;;;;;;0.30;0.30;;;;;;;8.02;100.00;97582.72;4975216;28;20478;-84
2021/10/31 01:06:36;;;;;;;0.47;0.47;;;;;;;8.05;100.00;97581.41;4959227;28;20034;-84
2021/10/31 01:09:03;;;;;;;0.35;0.35;;;;;;;8.04;100.00;97566.41;4992459;28;20030;-84
2021/10/31 01:11:45;;;;;;;0.30;0.30;;;;;;;8.04;100.00;97574.44;4958779;28;20030;-83
2021/10/31 01:14:28;;;;;;;0.30;0.30;;;;;;;8.01;100.00;97567.69;5007437;28;20552;-85
2021/10/31 01:17:03;;;;;;;0.30;0.30;;;;;;;7.97;100.00;97563.88;4959259;28;20042;-82
2021/10/31 01:20:06;;;;;;;0.30;0.30;;;;;;;7.90;100.00;97534.56;5007281;28;20026;-83
2021/10/31 01:22:37;;;;;;;0.30;0.30;;;;;;;7.96;100.00;97548.84;4991246;28;20062;-84
2021/10/31 01:25:34;;;;;;;0.30;0.30;;;;;;;7.94;100.00;97542.94;5007189;28;20084;-84
2021/10/31 01:28:16;;;;;;;0.43;0.43;;;;;;;7.85;100.00;97539.00;4990911;28;20073;-82
2021/10/31 01:31:10;;;;;;;0.30;0.30;;;;;;;7.84;100.00;97562.28;4975179;28;20046;-82
2021/10/31 01:34:14;;;;;;;4.57;0.57;;;;;;;7.90;100.00;97561.31;4990808;28;20303;-83
2021/10/31 01:36:52;;;;;;;0.30;0.30;;;;;;;7.92;100.00;97540.50;4974832;28;20029;-84
2021/10/31 01:39:27;;;;;;;0.30;0.30;;;;;;;7.90;100.00;97536.44;5007263;28;20109;-82
2021/10/31 01:42:05;;;;;;;0.38;0.38;;;;;;;7.89;100.00;97543.66;5007290;28;20026;-83
2021/10/31 01:44:47;;;;;;;0.90;0.47;;;;;;;7.85;100.00;97541.69;5010857;28;20349;-83
2021/10/31 01:47:13;;;;;;;0.30;0.30;;;;;;;7.78;100.00;97541.84;4962925;28;20030;-86
2021/10/31 01:49:45;;;;;;;0.50;0.50;;;;;;;7.71;100.00;97541.16;4994662;28;20105;-85
2021/10/31 01:52:15;;;;;;;0.30;0.30;;;;;;;7.64;100.00;97532.44;4995086;28;20042;-85
2021/10/31 01:54:47;;;;;;;0.30;0.30;;;;;;;7.59;100.00;97526.97;4978422;28;20053;-83
2021/10/31 01:57:18;;;;;;;0.30;0.30;;;;;;;7.51;100.00;97524.66;4996177;28;20073;-85
2021/10/31 01:59:47;;;;;;;0.32;0.32;;;;;;;7.48;100.00;97528.63;5010983;28;20376;-84
2021/10/31 02:02:14;;;;;;;1.45;0.77;;;;;;;7.41;100.00;97519.91;4962524;28;20034;-83
2021/10/31 02:04:41;;;;;;;0.30;0.30;;;;;;;7.32;100.00;97511.44;5011080;28;20293;-82
2021/10/31 02:07:07;;;;;;;0.30;0.30;;;;;;;7.28;100.00;97518.31;4994470;28;20034;-84
2021/10/31 02:09:33;;;;;;;0.43;0.43;;;;;;;7.28;100.00;97523.66;4978258;28;20456;-84
2021/10/31 02:12:01;;;;;;;1.27;0.30;;;;;;;7.28;100.00;97523.66;4978365;28;20613;-84
2021/10/31 02:14:27;;;;;;;0.30;0.30;;;;;;;7.25;100.00;97516.94;4994464;28;20026;-85
2021/10/31 02:16:56;;;;;;;0.22;0.22;;;;;;;7.17;100.00;97514.63;4994544;28;20018;-83
2021/10/31 02:19:27;;;;;;;0.30;0.30;;;;;;;7.12;100.00;97511.81;4994276;28;20034;-83
2021/10/31 02:21:57;;;;;;;0.40;0.40;;;;;;;7.08;100.00;97512.53;5010453;28;20085;-82
2021/10/31 02:24:23;;;;;;;0.30;0.30;;;;;;;7.16;100.00;97509.50;4993974;28;20042;-83
2021/10/31 02:26:50;;;;;;;0.43;0.43;;;;;;;7.21;100.00;97504.25;4994184;28;20026;-84
2021/10/31 02:29:17;;;;;;;0.30;0.30;;;;;;;7.25;100.00;97506.25;4994153;28;20115;-82
2021/10/31 02:31:43;;;;;;;0.30;0.30;;;;;;;7.29;100.00;97495.88;4994299;28;20432;-85
2021/10/31 02:34:08;;;;;;;0.30;0.30;;;;;;;7.30;100.00;97502.84;5010531;28;20026;-83
2021/10/31 02:36:35;;;;;;;0.22;0.22;;;;;;;7.20;100.00;97479.41;4994272;28;20050;-83
2021/10/31 02:39:05;;;;;;;0.30;0.30;;;;;;;7.24;100.00;97487.75;4978070;28;20033;-84
2021/10/31 02:41:32;;;;;;;0.30;0.30;;;;;;;7.19;100.00;97479.63;5010582;28;20117;-82
2021/10/31 02:43:58;;;;;;;1.65;1.20;;;;;;;7.16;100.00;97472.09;4994080;28;20038;-85
2021/10/31 02:46:25;;;;;;;0.30;0.30;;;;;;;7.04;100.00;97459.56;4993756;28;20038;-82
2021/10/31 02:48:51;;;;;;;0.30;0.30;;;;;;;7.02;100.00;97466.19;4977924;28;20628;-82
2021/10/31 02:51:29;;;;;;;0.40;0.40;;;;;;;7.02;100.00;97469.66;4994296;28;20465;-85
2021/10/31 02:54:00;;;;;;;0.30;0.30;;;;;;;7.03;100.00;97473.94;5009933;28;20515;-83
2021/10/31 02:56:35;;;;;;;0.30;0.30;;;;;;;7.02;100.00;97479.53;4993547;28;20038;-83
2021/10/31 02:59:02;;;;;;;0.50;0.50;;;;;;;6.92;100.00;97464.09;4994160;28;20117;-84
2021/10/31 03:01:29;;;;;;;0.30;0.30;;;;;;;6.94;100.00;97467.34;4995025;28;20513;-86
2021/10/31 03:03:56;;;;;;;0.50;0.45;;;;;;;6.99;100.00;97472.00;4977633;28;20457;-85
2021/10/31 03:06:22;;;;;;;0.30;0.30;;;;;;;7.00;100.00;97469.06;4993820;28;20101;-85
2021/10/31 03:08:48;;;;;;;0.30;0.30;;;;;;;6.93;100.00;97455.03;5009887;28;20068;-81
2021/10/31 03:11:14;;;;;;;0.30;0.30;;;;;;;6.96;100.00;97449.22;4993370;28;20018;-84
2021/10/31 03:13:40;;;;;;;0.30;0.30;;;;;;;6.93;100.00;97439.03;4994444;28;20022;-84
2021/10/31 03:16:07;;;;;;;0.40;0.40;;;;;;;6.99;100.00;97438.06;4993187;28;20045;-86
2021/10/31 03:18:32;;;;;;;0.57;0.40;;;;;;;7.04;100.00;97442.72;5009617;28;20028;-85
2021/10/31 03:20:58;;;;;;;0.35;0.35;;;;;;;7.02;100.00;97445.63;4993482;28;20185;-81
2021/10/31 03:23:24;;;;;;;0.30;0.30;;;;;;;6.98;100.00;97441.78;4993132;28;20022;-85
2021/10/31 03:25:50;;;;;;;0.30;0.30;;;;;;;6.96;100.00;97443.06;4960868;28;20093;-82
2021/10/31 03:28:15;;;;;;;0.30;0.30;;;;;;;6.90;100.00;97433.31;4976983;28;20033;-84
2021/10/31 03:30:41;;;;;;;0.50;0.50;;;;;;;6.94;100.00;97442.50;4993217;28;20369;-82
2021/10/31 03:33:07;;;;;;;0.38;0.38;;;;;;;6.97;100.00;97445.50;4992923;28;20030;-85
2021/10/31 03:35:33;;;;;;;0.55;0.55;;;;;;;6.95;100.00;97420.88;4992768;28;20412;-85
2021/10/31 03:37:59;;;;;;;0.82;0.60;;;;;;;6.99;100.00;97431.94;4992718;28;20026;-85
2021/10/31 03:40:24;;;;;;;1.55;0.65;;;;;;;7.11;100.00;97423.88;4993072;28;20053;-84
2021/10/31 03:42:50;;;;;;;0.52;0.50;;;;;;;7.11;100.00;97413.19;4992690;28;20033;-81
2021/10/31 03:45:16;;;;;;;0.40;0.40;;;;;;;7.17;100.00;97401.56;5009107;28;20476;-86
2021/10/31 03:47:49;;;;;;;0.30;0.30;;;;;;;7.18;100.00;97408.53;4993600;28;20032;-83
2021/10/31 03:50:17;;;;;;;0.30;0.30;;;;;;;7.14;100.00;97402.03;4992801;28;20019;-82
2021/10/31 03:52:44;;;;;;;0.40;0.40;;;;;;;7.14;100.00;97386.00;4992632;28;20060;-84
2021/10/31 03:55:11;;;;;;;0.40;0.40;;;;;;;7.15;100.00;97390.31;4992391;28;20056;-84
2021/10/31 03:57:38;;;;;;;0.30;0.30;;;;;;;7.19;100.00;97404.81;4992631;28;20129;-81
2021/10/31 04:00:05;;;;;;;0.40;0.40;;;;;;;7.12;100.00;97398.78;5008761;28;20034;-83
2021/10/31 04:02:31;;;;;;;0.30;0.30;;;;;;;7.08;100.00;97393.09;4992483;28;20121;-85
2021/10/31 04:04:57;;;;;;;0.43;0.43;;;;;;;7.01;100.00;97392.41;4976516;28;20045;-84
2021/10/31 04:07:22;;;;;;;0.45;0.40;;;;;;;6.91;100.00;97382.34;4991970;28;20452;-84
2021/10/31 04:09:48;;;;;;;0.30;0.30;;;;;;;6.88;100.00;97384.66;4976349;28;20030;-84
2021/10/31 04:12:14;;;;;;;0.32;0.32;;;;;;;6.80;100.00;97384.00;4976122;28;20022;-84
2021/10/31 04:14:39;;;;;;;0.43;0.43;;;;;;;6.73;100.00;97366.47;5008141;28;20026;-84
2021/10/31 04:17:05;;;;;;;0.40;0.40;;;;;;;6.65;100.00;97372.97;4975980;28;20500;-83
2021/10/31 04:19:30;;;;;;;2.92;0.50;;;;;;;6.59;100.00;97369.38;4975835;28;20033;-84
2021/10/31 04:21:56;;;;;;;0.40;0.40;;;;;;;6.60;100.00;97365.66;4993120;28;20033;-84
2021/10/31 04:24:22;;;;;;;1.20;0.40;;;;;;;6.54;100.00;97366.59;5008519;28;20113;-82
2021/10/31 04:26:50;;;;;;;0.40;0.40;;;;;;;6.47;100.00;97354.41;4992245;28;20034;-81
2021/10/31 04:29:16;;;;;;;0.40;0.40;;;;;;;6.36;100.00;97354.19;4991615;28;20525;-84
2021/10/31 04:31:42;;;;;;;0.50;0.50;;;;;;;6.32;100.00;97353.00;4976052;28;20085;-84
2021/10/31 04:34:07;;;;;;;0.40;0.40;;;;;;;6.31;100.00;97350.59;4991930;28;20053;-82
2021/10/31 04:36:33;;;;;;;0.40;0.40;;;;;;;6.29;100.00;97355.34;5008243;28;20033;-84
2021/10/31 04:38:59;;;;;;;0.40;0.40;;;;;;;6.27;100.00;97346.75;4959716;28;20034;-86
2021/10/31 04:41:27;;;;;;;1.05;0.40;;;;;;;6.24;100.00;97352.56;4991690;28;20061;-84
2021/10/31 04:43:53;;;;;;;0.30;0.30;;;;;;;6.15;100.00;97339.56;4991799;28;20080;-87
2021/10/31 04:46:18;;;;;;;1.08;0.50;;;;;;;6.27;100.00;97344.09;4991491;28;20431;-87
2021/10/31 04:48:44;;;;;;;1.55;0.73;;;;;;;6.20;100.00;97341.53;4991415;28;20480;-84
2021/10/31 04:51:09;;;;;;;6.32;1.30;;;;;;;6.13;100.00;97327.50;4991917;28;20031;-81
2021/10/31 04:53:35;;;;;;;2.92;0.68;;;;;;;6.05;100.00;97328.66;4991116;28;20018;-86
2021/10/31 04:56:01;;;;;;;1.30;1.30;;;;;;;6.01;100.00;97324.84;4991619;28;20031;-86
2021/10/31 04:58:26;;;;;;;0.55;0.55;;;;;;;6.00;100.00;97325.84;5007716;28;20372;-83
2021/10/31 05:00:52;;;;;;;0.30;0.30;;;;;;;6.02;100.00;97334.44;4975243;28;20034;-80
2021/10/31 05:03:18;;;;;;;2.05;0.50;;;;;;;5.94;100.00;97324.94;4991361;28;20034;-84
2021/10/31 05:05:43;;;;;;;0.32;0.32;;;;;;;5.96;100.00;97329.25;4975394;28;20465;-83
2021/10/31 05:08:09;;;;;;;0.77;0.73;;;;;;;5.97;100.00;97322.84;4991272;28;20029;-85
2021/10/31 05:10:34;;;;;;;0.38;0.38;;;;;;;6.00;100.00;97312.53;4959437;28;20039;-84
2021/10/31 05:13:00;;;;;;;0.30;0.30;;;;;;;5.94;100.00;97314.25;5007396;28;20030;-84
2021/10/31 05:15:26;;;;;;;0.35;0.35;;;;;;;5.93;100.00;97311.81;5007908;28;20469;-84
2021/10/31 05:17:53;;;;;;;0.40;0.40;;;;;;;5.90;100.00;97312.25;4975110;28;20365;-87
2021/10/31 05:20:19;;;;;;;0.43;0.43;;;;;;;5.81;100.00;97308.31;4991769;28;20117;-87
2021/10/31 05:22:45;;;;;;;0.40;0.40;;;;;;;5.72;100.00;97308.66;4975793;28;20492;-85
2021/10/31 05:25:12;;;;;;;0.50;0.50;;;;;;;5.65;100.00;97305.25;5008295;28;20404;-89
2021/10/31 05:27:38;;;;;;;0.40;0.40;;;;;;;5.61;100.00;97297.94;4991666;28;20040;-86
2021/10/31 05:30:05;;;;;;;0.30;0.30;;;;;;;5.58;100.00;97299.22;5008029;28;20206;-87
2021/10/31 05:32:35;;;;;;;0.40;0.40;;;;;;;5.64;100.00;97297.50;4991571;28;20129;-84
2021/10/31 05:35:02;;;;;;;3.47;0.50;;;;;;;5.65;100.00;97299.13;4992154;28;20031;-85
2021/10/31 05:37:41;;;;;;;0.35;0.35;;;;;;;5.60;100.00;97293.66;4991523;28;20040;-88
2021/10/31 05:40:09;;;;;;;0.30;0.30;;;;;;;5.58;100.00;97296.53;4960201;28;20038;-83
2021/10/31 05:42:35;;;;;;;0.30;0.30;;;;;;;5.53;100.00;97295.63;5007618;28;20061;-86
2021/10/31 05:45:01;;;;;;;0.40;0.40;;;;;;;5.46;100.00;97293.88;4990985;28;20058;-86
2021/10/31 05:47:26;;;;;;;2.90;1.50;;;;;;;5.32;100.00;97279.13;5007189;28;20045;-87
2021/10/31 05:49:52;;;;;;;1.23;1.15;;;;;;;5.38;100.00;97293.38;5007167;28;20041;-86
2021/10/31 05:52:18;;;;;;;1.70;1.00;;;;;;;5.32;100.00;97281.78;4975582;28;20373;-87
2021/10/31 05:54:44;;;;;;;2.08;1.25;;;;;;;5.27;100.00;97287.00;4974750;28;20388;-82
2021/10/31 05:57:10;;;;;;;0.98;0.98;;;;;;;5.19;100.00;97279.31;4990939;28;20038;-87
2021/10/31 05:59:35;;;;;;;2.05;0.85;;;;;;;5.14;100.00;97269.34;4990717;28;20046;-83
2021/10/31 06:02:02;;;;;;;0.88;0.88;;;;;;;5.15;100.00;97262.97;4990970;28;20033;-86
2021/10/31 06:04:28;;;;;;;0.30;0.30;;;;;;;5.28;100.00;97256.63;5007233;28;20034;-87
2021/10/31 06:06:54;;;;;;;0.40;0.40;;;;;;;5.36;100.00;97247.50;4990900;28;20030;-84
2021/10/31 06:09:20;;;;;;;0.40;0.40;;;;;;;5.49;100.00;97256.09;4992005;28;20109;-85
2021/10/31 06:11:48;;;;;;;0.30;0.30;;;;;;;5.56;100.00;97240.03;4990787;28;20037;-83
2021/10/31 06:14:14;;;;;;;6.85;0.68;;;;;;;5.64;100.00;97239.69;4990606;28;20026;-87
2021/10/31 06:16:40;;;;;;;0.80;0.80;;;;;;;5.66;100.00;97245.59;4974486;28;20034;-82
2021/10/31 06:19:06;;;;;;;2.17;1.63;;;;;;;5.58;100.00;97235.25;5006965;28;20189;-84
2021/10/31 06:21:32;;;;;;;0.47;0.47;;;;;;;5.49;100.00;97241.97;4990652;28;20496;-86
2021/10/31 06:23:57;;;;;;;0.40;0.40;;;;;;;5.47;100.00;97225.41;4990326;28;20049;-85
2021/10/31 06:26:23;;;;;;;0.50;0.50;;;;;;;5.50;100.00;97230.25;4990528;28;20415;-84
2021/10/31 06:28:49;;;;;;;0.40;0.40;;;;;;;5.46;100.00;97226.44;4990906;28;20683;-86
2021/10/31 06:31:14;;;;;;;0.30;0.30;;;;;;;5.41;100.00;97223.66;4995137;28;20380;-85
2021/10/31 06:33:40;;;;;;;7.90;0.80;;;;;;;5.27;100.00;97215.06;4993987;28;20371;-85
2021/10/31 06:36:06;;;;;;;15.02;1.25;;;;;;;5.14;100.00;97200.09;4994186;28;20061;-85
2021/10/31 06:38:31;;;;;;;0.40;0.40;;;;;;;5.13;100.00;97205.66;5010239;28;20034;-86
2021/10/31 06:40:57;;;;;;;0.85;0.85;;;;;;;5.02;100.00;97199.25;5010407;28;20026;-86
2021/10/31 06:43:23;;;;;;;0.50;0.50;;;;;;;5.00;100.00;97196.00;4994223;28;20412;-83
2021/10/31 06:45:48;;;;;;;0.30;0.30;;;;;;;4.91;100.00;97195.50;4977861;28;20038;-83
2021/10/31 06:48:14;;;;;;;0.40;0.40;;;;;;;4.77;100.00;97181.59;4993985;28;20460;-87
2021/10/31 06:50:40;;;;;;;0.40;0.40;;;;;;;4.76;100.00;97182.63;4961442;28;20138;-86
2021/10/31 06:53:06;;;;;;;0.85;0.70;;;;;;;4.71;100.00;97182.50;4994936;28;20038;-84
2021/10/31 06:55:32;;;;;;;0.50;0.50;;;;;;;4.67;100.00;97183.97;4993722;28;20022;-85
2021/10/31 06:57:58;;;;;;;0.70;0.70;;;;;;;4.68;100.00;97171.47;4977548;28;20547;-82
2021/10/31 07:00:26;;;;;;;0.93;0.55;;;;;;;4.72;100.00;97162.03;4993356;28;20030;-84
2021/10/31 07:02:52;;;;;;;0.40;0.40;;;;;;;4.90;100.00;97161.97;4993562;28;20453;-83
2021/10/31 07:05:17;;;;;;;0.50;0.50;;;;;;;4.99;100.00;97157.91;4961344;28;20023;-88
2021/10/31 07:07:43;;;;;;;1.15;1.02;;;;;;;5.08;100.00;97147.78;4994412;28;20101;-84
2021/10/31 07:10:09;;;;;;;0.60;0.60;;;;;;;5.18;100.00;97140.00;4993631;28;20415;-86
2021/10/31 07:12:34;;;;;;;1.38;1.38;;;;;;;5.29;100.00;97139.22;4961359;28;20037;-86
2021/10/31 07:15:00;;;;;;;2.05;0.65;;;;;;;5.41;100.00;97133.09;4961586;28;20038;-85
2021/10/31 07:17:26;;;;;;;0.57;0.57;;;;;;;5.53;100.00;97123.25;4977279;28;20104;-85
2021/10/31 07:19:51;;;;;;;2.08;0.75;;;;;;;5.64;100.00;97117.09;4995504;28;20034;-85
2021/10/31 07:22:19;;;;;;;0.50;0.50;;;;;;;5.66;100.00;97112.34;4979316;28;20030;-85
2021/10/31 07:24:47;;;;;;;0.50;0.50;;;;;;;5.66;100.00;97107.00;4997299;28;20026;-86
2021/10/31 07:27:13;;;;;;;0.73;0.50;;;;;;;5.68;100.00;97104.91;4994234;28;20041;-87
2021/10/31 07:29:38;;;;;;;0.85;0.85;;;;;;;5.60;100.00;97083.13;4993652;28;20027;-85
2021/10/31 07:32:04;;;;;;;0.70;0.70;;;;;;;5.68;100.00;97082.78;4993285;28;20424;-86
2021/10/31 07:34:30;;;;;;;0.88;0.88;;;;;;;5.79;100.00;97083.78;4978168;28;20030;-84
2021/10/31 07:36:56;;;;;;;0.77;0.50;;;;;;;5.84;100.00;97086.56;4994332;28;20118;-85
2021/10/31 07:39:21;;;;;;;1.85;1.05;;;;;;;5.81;100.00;97077.19;4993216;28;20102;-86
2021/10/31 07:41:47;;;;;;;0.57;0.57;;;;;;;5.87;100.00;97080.75;5008440;28;20033;-87
2021/10/31 07:44:12;;;;;;;0.50;0.50;;;;;;;5.91;100.00;97073.91;4993070;28;20444;-86
2021/10/31 07:46:38;;;;;;;2.20;0.60;;;;;;;6.07;100.00;97072.41;5008960;28;20026;-82
2021/10/31 07:49:04;;;;;;;2.08;0.60;;;;;;;6.13;100.00;97060.75;4992827;28;20041;-84
2021/10/31 07:51:30;;;;;;;1.98;1.15;;;;;;;6.25;100.00;97066.88;4992235;28;20022;-84
2021/10/31 07:53:56;;;;;;;0.55;0.50;;;;;;;6.33;100.00;97061.16;4992766;28;20149;-85
2021/10/31 07:56:24;;;;;;;8.77;0.82;;;;;;;6.42;100.00;97058.09;4992553;28;20027;-85
2021/10/31 07:58:55;;;;;;;2.85;0.47;;;;;;;6.49;100.00;97059.56;4993097;28;20141;-86
2021/10/31 08:01:22;;;;;;;0.40;0.40;;;;;;;6.53;100.00;97049.22;4977090;28;20391;-84
2021/10/31 08:03:48;;;;;;;0.47;0.47;;;;;;;6.48;100.00;97017.91;4976033;28;20054;-88
2021/10/31 08:06:14;;;;;;;0.90;0.38;;;;;;;6.59;100.00;97042.94;4976400;28;20034;-83
2021/10/31 08:08:39;;;;;;;1.48;0.95;;;;;;;6.58;100.00;97035.94;4992398;28;20029;-83
2021/10/31 08:11:05;;;;;;;0.95;0.82;;;;;;;6.59;100.00;97041.06;4993692;28;20393;-85
2021/10/31 08:13:31;;;;;;;2.63;1.10;;;;;;;6.63;100.00;97044.06;4992633;28;20022;-85
2021/10/31 08:15:57;;;;;;;4.75;1.30;;;;;;;6.62;100.00;97041.63;4976057;28;20072;-84
2021/10/31 08:18:23;;;;;;;2.30;0.80;;;;;;;6.61;100.00;97032.78;4960063;28;20026;-85
2021/10/31 08:20:49;;;;;;;2.70;1.10;;;;;;;6.68;100.00;97038.00;4991918;28;20096;-81
2021/10/31 08:23:15;;;;;;;3.92;0.70;;;;;;;6.55;100.00;97021.22;5008519;28;20412;-83
2021/10/31 08:25:43;;;;;;;11.65;2.65;;;;;;;6.70;100.00;97034.03;5008646;28;20034;-84
2021/10/31 08:28:10;;;;;;;0.85;0.80;;;;;;;6.71;100.00;97038.31;4975795;28;20018;-84
2021/10/31 08:30:36;;;;;;;4.93;3.28;;;;;;;6.72;100.00;97031.09;5007978;28;20022;-83
2021/10/31 08:33:19;;;;;;;6.25;1.60;;;;;;;6.70;100.00;97030.56;4991513;28;20376;-86
2021/10/31 08:35:45;;;;;;;24.85;5.85;;;;;;;6.76;100.00;97037.59;5008563;28;20026;-84
2021/10/31 08:38:11;;;;;;;5.45;3.50;;;;;;;6.78;100.00;97030.97;4975718;28;20074;-83
2021/10/31 08:40:37;;;;;;;7.82;2.53;;;;;;;6.78;100.00;97022.94;4991857;28;20066;-85
2021/10/31 08:43:03;;;;;;;7.55;2.92;;;;;;;6.99;100.00;97032.09;4991525;28;20038;-84
2021/10/31 08:45:29;;;;;;;17.27;7.13;;;;;;;7.10;100.00;97030.38;4991425;28;20396;-88
2021/10/31 08:47:54;;;;;;;13.63;6.53;;;;;;;7.19;100.00;97017.41;4991665;28;20479;-85
2021/10/31 08:50:20;;;;;;;4.70;2.83;;;;;;;7.36;100.00;97034.22;4991714;28;20034;-86
2021/10/31 08:52:45;;;;;;;10.27;2.70;;;;;;;7.54;100.00;97024.28;4959392;28;20128;-87
2021/10/31 08:55:12;;;;;;;9.00;3.63;;;;;;;7.75;100.00;97044.88;4991406;28;20105;-85
2021/10/31 08:57:39;;;;;;;3.53;1.27;;;;;;;7.79;100.00;97031.81;4975495;28;20121;-89
2021/10/31 09:00:06;;;;;;;6.82;1.88;;;;;;;7.87;100.00;97037.53;4991651;28;20150;-87
2021/10/31 09:02:32;;;;;;;6.47;2.25;;;;;;;7.83;100.00;97025.72;4991372;28;20461;-83
2021/10/31 09:04:57;;;;;;;4.13;0.93;;;;;;;7.95;100.00;97033.63;5007524;28;20045;-86
2021/10/31 09:07:23;;;;;;;1.83;0.82;;;;;;;7.97;100.00;97033.38;4991844;28;20023;-87
2021/10/31 09:09:49;;;;;;;4.60;1.67;;;;;;;8.02;100.00;97033.41;4959333;28;20041;-83
2021/10/31 09:12:16;;;;;;;5.22;1.42;;;;;;;7.88;100.00;97023.09;5008022;28;20026;-85
2021/10/31 09:14:41;;;;;;;2.72;0.70;;;;;;;7.84;100.00;97016.66;5007229;28;20081;-85
2021/10/31 09:17:07;;;;;;;1.95;0.90;;;;;;;7.86;100.00;97017.22;4975080;28;20030;-87
2021/10/31 09:19:33;;;;;;;5.25;0.95;;;;;;;7.88;100.00;97016.94;4974943;28;20036;-86
2021/10/31 09:21:59;;;;;;;2.58;0.70;;;;;;;7.95;100.00;97016.75;5007639;28;20027;-84
2021/10/31 09:24:26;;;;;;;12.88;1.70;;;;;;;7.92;100.00;97013.53;4990941;28;20026;-84
2021/10/31 09:26:52;;;;;;;3.28;0.73;;;;;;;7.98;100.00;97021.59;5007583;28;20473;-83
2021/10/31 09:29:17;;;;;;;4.82;0.80;;;;;;;8.06;100.00;97031.84;4974786;28;20054;-84
2021/10/31 09:31:44;;;;;;;6.35;2.20;;;;;;;8.08;100.00;97033.22;4974982;28;20032;-83
2021/10/31 09:34:09;;;;;;;10.10;1.45;;;;;;;8.14;100.00;97034.88;4990943;28;20072;-86
2021/10/31 09:36:36;;;;;;;5.22;1.40;;;;;;;8.05;100.00;97031.06;4990992;28;20026;-85
2021/10/31 09:39:09;;;;;;;7.07;1.42;;;;;;;8.17;100.00;97041.59;4992119;28;20110;-87
2021/10/31 09:41:35;;;;;;;7.93;1.85;;;;;;;8.20;100.00;97037.63;4974865;28;20034;-82
2021/10/31 09:44:22;;;;;;;7.18;1.98;;;;;;;8.20;100.00;97051.00;4990571;28;20380;-86
2021/10/31 09:46:48;;;;;;;4.30;0.85;;;;;;;8.19;100.00;97044.84;5004979;28;20121;-84
2021/10/31 09:49:15;;;;;;;5.00;0.95;;;;;;;8.20;100.00;97041.09;5007165;28;20030;-85
2021/10/31 09:51:42;;;;;;;6.60;1.85;;;;;;;8.24;100.00;97052.94;4991018;28;20413;-83
2021/10/31 09:54:10;;;;;;;14.10;4.75;;;;;;;8.25;100.00;97046.50;4990749;28;20026;-87
2021/10/31 09:56:38;;;;;;;14.98;4.68;;;;;;;8.34;100.00;97063.75;4990823;28;20027;-85
2021/10/31 09:59:09;;;;;;;9.40;2.33;;;;;;;8.36;100.00;97061.63;5006991;28;20033;-84
2021/10/31 10:04:50;;;;;;;8.35;1.70;;;;;;;8.58;100.00;97058.13;4993308;28;20420;-83
2021/10/31 10:07:21;;;;;;;6.43;2.57;;;;;;;8.71;100.00;97068.41;4978829;28;20026;-86
2021/10/31 10:09:54;;;;;;;8.95;1.50;;;;;;;8.66;100.00;97060.34;4994663;28;20307;-83
2021/10/31 10:12:21;;;;;;;5.55;1.27;;;;;;;8.73;100.00;97065.47;4994679;28;20417;-85
2021/10/31 10:14:51;;;;;;;10.30;2.28;;;;;;;8.86;100.00;97070.41;4977924;28;20030;-88
2021/10/31 10:17:17;;;;;;;9.05;1.75;;;;;;;9.17;100.00;97060.75;4994204;28;20549;-84
2021/10/31 10:20:03;;;;;;;7.55;1.48;;;;;;;9.44;100.00;97075.94;4978252;28;20041;-85
2021/10/31 10:22:29;;;;;;;9.05;1.65;;;;;;;9.56;100.00;97073.06;4994406;28;20085;-85
2021/10/31 10:25:00;;;;;;;14.27;1.92;;;;;;;9.84;100.00;97074.53;4994161;28;20081;-85
2021/10/31 10:27:29;;;;;;;7.95;1.75;;;;;;;9.96;100.00;97088.56;5010535;28;20085;-86
2021/10/31 10:29:56;;;;;;;8.02;1.80;;;;;;;10.00;100.00;97089.66;4994115;28;20510;-87
2021/10/31 10:32:24;;;;;;;6.88;1.67;;;;;;;9.83;100.00;97078.31;4994209;28;20077;-87
2021/10/31 10:34:55;;;;;;;12.00;1.70;;;;;;;9.68;100.00;97081.69;4994084;28;20033;-84
2021/10/31 10:37:36;;;;;;;10.00;2.10;;;;;;;9.56;100.00;97086.47;4994450;28;20065;-86
2021/10/31 10:40:14;;;;;;;11.45;2.03;;;;;;;9.64;100.00;97086.78;4993729;28;20033;-88
2021/10/31 10:42:46;;;;;;;8.60;1.90;;;;;;;9.86;100.00;97099.25;4994328;28;20034;-86
2021/10/31 10:45:16;;;;;;;6.95;2.30;;;;;;;9.82;100.00;97096.28;4995146;28;20045;-84
2021/10/31 10:47:44;;;;;;;10.23;2.03;;;;;;;9.78;100.00;97103.22;5010318;28;20368;-87
2021/10/31 10:50:28;;;;;;;8.80;1.75;;;;;;;9.75;100.00;97100.25;4993782;28;20105;-86
2021/10/31 10:52:54;;;;;;;18.38;2.53;;;;;;;9.71;100.00;97120.63;4993379;28;20023;-86
2021/10/31 10:55:24;;;;;;;8.10;1.70;;;;;;;9.56;100.00;97127.50;5009801;28;20030;-87
2021/10/31 10:57:53;;;;;;;6.88;1.63;;;;;;;9.44;100.00;97125.00;4977547;28;20038;-84
2021/10/31 11:00:23;;;;;;;6.40;1.75;;;;;;;9.53;100.00;97133.38;4993423;28;20026;-86
2021/10/31 11:03:01;;;;;;;6.63;1.67;;;;;;;9.84;100.00;97136.25;4977456;28;20112;-86
2021/10/31 11:05:36;;;;;;;12.30;3.15;;;;;;;10.24;100.00;97134.84;4994782;28;20125;-87
2021/10/31 11:08:14;;;;;;;6.25;1.92;;;;;;;10.35;100.00;97149.97;4993520;28;20463;-82
2021/10/31 11:10:54;;;;;;;6.78;1.98;;;;;;;10.46;100.00;97151.63;4993334;28;20085;-83
2021/10/31 11:13:20;;;;;;;6.03;1.52;;;;;;;10.36;100.00;97164.19;4993401;28;20468;-87
2021/10/31 11:15:45;;;;;;;1.45;0.77;;;;;;;9.97;100.00;97157.25;4991916;28;20034;-86
2021/10/31 11:18:11;;;;;;;6.90;1.27;;;;;;;9.77;100.00;97176.75;4993387;28;20026;-85
2021/10/31 11:20:39;;;;;;;3.40;1.27;;;;;;;9.72;100.00;97170.53;4977264;28;20045;-87
2021/10/31 11:23:07;;;;;;;1.70;1.00;;;;;;;9.56;100.00;97181.16;4993184;28;20360;-86
2021/10/31 11:25:36;;;;;;;4.00;1.58;;;;;;;9.30;100.00;97184.69;5009430;28;20026;-87
2021/10/31 11:28:05;;;;;;;5.68;1.50;;;;;;;9.08;100.00;97177.53;4993868;28;20109;-86
2021/10/31 11:30:33;;;;;;;4.07;1.30;;;;;;;8.95;100.00;97175.25;4977117;28;20027;-85
2021/10/31 11:33:00;;;;;;;9.70;2.28;;;;;;;8.89;100.00;97177.09;4976836;28;20026;-84
2021/10/31 11:35:27;;;;;;;5.28;1.60;;;;;;;8.96;100.00;97164.28;4976418;28;20056;-86
2021/10/31 11:38:01;;;;;;;7.75;1.80;;;;;;;8.94;100.00;97179.78;4992807;28;20038;-85